Denio, NV

09:26 AM PST on 22. Nóvember 2014 (GMT -0800)
Winnemucca Municipal | Change Station
CLOSE
Current Station
Airport
Location: Winnemucca,
Elevation: 4311 ft
Nearby Weather Stations
Active Advisory: Special Statement

Elev 4311 ft 40.90 °N, 117.81 °W | Updated 30 minutes ago

Alskýjað
Alskýjað
56 °F
Feels Like 56 °F
N
21
Vindur Breytileg vindátt Vindur from SV
Gusts 29 mph

Í dag
High -- | Low -- °F
--% Chance of Precip.
Yesterday
High -- | Low -- °F
Precip. -- in
6:52 AM 4:28 PM
New, 0% visible
Loftþrýstingur 29.79 in
Skyggni 10.0 miles
Clouds Skýjað að mestu 5000 ft
Alskýjað 6000 ft
Daggarmark 42 °F
Raki 60%
Rainfall 0.01 in
Snow Depth Not available.
UV 0 out of 12
Pollen 2.70 out of 12
Air Quality Not available.
Flu Activity Not available.
METAR KWMC 221656Z AUTO 23018G25KT 10SM BKN050 OVC060 13/06 A2984 RMK AO2 SLP088 T01330056

More Conditions Fewer Conditions

Loftþrýstingur 29.79 in
Skyggni 10.0 miles
Clouds Skýjað að mestu 5000 ft
Alskýjað 6000 ft
Daggarmark 42 °F
Raki 60%
Rainfall 0.01 in
Snow Depth Not available.
UV 0 out of 12
Pollen 2.70 out of 12
Air Quality Not available.
Flu Activity Not available.
METAR KWMC 221656Z AUTO 23018G25KT 10SM BKN050 OVC060 13/06 A2984 RMK AO2 SLP088 T01330056

More Conditions Fewer Conditions

10-Day Weather Forecast

Almanac

Astronomy

Nov. 22, 2014 Rise Set
Actual Time
Civil Twilight
Nautical Twilight
Astronomical Twilight
Moon
Length Of Visible Light
Length of Day
Tomorrow will be .
, % of the Moon is Illuminated

Today's Extremes

State Highs State Lows

Community

WunderPhotos

Upload Photos

1,772,864 photos uploaded!

WunderBlogs® & News

Nearby

Air Quality

  Air Quality AQ Index Pollutant
Not available.

Snow Depth

Station Depth Elevation

Earthquake Activity

Staður Distance Mag. Time & Date
Minimum magnitude displayed is 2.5.

Coastal Water Temperatures

Staður Hitastig

Nearby Weather Stations